Grand Rapids, MI (49544)

3:51 AM EDT on July 25, 2016 (GMT -0400)
Elmridge and Richmond | | Change Station

Elev 745 ft 43.00 °N, 85.74 °W | Updated 7 minutes ago

Mostly Cloudy
Mostly Cloudy
74.7 °F
Feels Like 73 °F
N
2.2
Wind Variable Wind from SSW

Today
High -- | Low -- °F
--% Chance of Precip.
Yesterday
High -- | Low -- °F
Precip. -- in
Pressure 29.90 in
Visibility 10.0 miles
Clouds Mostly Cloudy 3500 ft
Mostly Cloudy 6000 ft
Heat Index 73 °F
Dew Point 72 °F
Humidity 91%
Rainfall 0.00 in
Snow Depth Not available.
6:27 AM 9:11 PM
Waning Gibbous, 68% visible
METAR KGRR 250653Z AUTO 24012KT 10SM BKN035 BKN060 25/20 A2991 RMK AO2 SLP123 T02500200
Pressure 29.90 in
Visibility 10.0 miles
Clouds Mostly Cloudy 3500 ft
Mostly Cloudy 6000 ft
Heat Index 73 °F
Dew Point 72 °F
Humidity 91%
Rainfall 0.00 in
Snow Depth Not available.
6:27 AM 9:11 PM
Waning Gibbous, 68% visible
METAR KGRR 250653Z AUTO 24012KT 10SM BKN035 BKN060 25/20 A2991 RMK AO2 SLP123 T02500200

10-Day Weather Forecast

Almanac

Astronomy

Jul. 25, 2016 Rise Set
Actual Time
Civil Twilight
Nautical Twilight
Astronomical Twilight
Moon
Length of Visible Light
Length of Day
Tomorrow will be .
, % of the Moon is Illuminated

Today's Extremes

State Highs State Lows

Community

WunderPhotos

Upload Photos

1,927,274 photos uploaded!

WunderBlog® & News

Nearby

Air Quality

  Air Quality AQ Index Pollutant
Not available.

Snow Depth

Station Depth Elevation

Earthquake Activity

City Distance Mag. Time & Date
Minimum magnitude displayed is 2.5.

Coastal Water Temperatures

Place Temperature

Stations

Nearby Weather Stations

Station Location Temp. Windchill Dew Point Humidity Wind Precip. Elev Updated Type
                   

Watches & Warnings

There are currently no watches in effect.